createdAt,value
2022-11-20T00:02:05.216Z,1.37
2022-11-20T00:17:07.676Z,0.81
2022-11-20T00:32:10.029Z,0.56
2022-11-20T00:47:12.300Z,0.97
2022-11-20T01:02:14.714Z,0.47
2022-11-20T01:17:17.913Z,0.38
2022-11-20T01:32:20.313Z,0.27
2022-11-20T01:47:22.714Z,-0.1
2022-11-20T02:02:25.231Z,-0.32
2022-11-20T02:17:27.660Z,-0.41
2022-11-20T02:32:30.737Z,-0.48
2022-11-20T02:47:34.580Z,-0.88
2022-11-20T03:02:37.233Z,-0.85
2022-11-20T03:17:39.936Z,-1.24
2022-11-20T03:32:43.092Z,-1.29
2022-11-20T03:47:45.293Z,-1.34
2022-11-20T04:02:47.681Z,-1.5
2022-11-20T04:17:50.104Z,-1.78
2022-11-20T04:32:52.595Z,-2.02
2022-11-20T04:47:55.119Z,-2.11
2022-11-20T05:02:57.616Z,-1.93
2022-11-20T05:17:59.983Z,-2.11
2022-11-20T05:33:02.854Z,-2.44
2022-11-20T05:48:05.327Z,-2.38
2022-11-20T06:03:07.880Z,-2.35
2022-11-20T06:18:10.380Z,-2.48
2022-11-20T06:33:12.750Z,-2.55
2022-11-20T06:48:15.149Z,-2.68
2022-11-20T07:03:17.428Z,-2.64
2022-11-20T07:18:19.739Z,-2.46
2022-11-20T07:33:22.105Z,-2.44
2022-11-20T07:48:24.416Z,-2.25
2022-11-20T08:03:26.810Z,-2
2022-11-20T08:18:31.669Z,-1.86
2022-11-20T08:33:34.804Z,-2.03
2022-11-20T08:48:37.212Z,-1.69
2022-11-20T09:03:39.790Z,-1.88
2022-11-20T09:18:42.202Z,-1.83
2022-11-20T09:33:44.639Z,-1.68
2022-11-20T09:48:47.118Z,-1.68
2022-11-20T10:03:49.574Z,-1.37
2022-11-20T10:18:52.023Z,-1.33
2022-11-20T10:34:11.751Z,-1.35
2022-11-20T10:49:14.824Z,-1.8
2022-11-20T11:04:17.238Z,-1.92
2022-11-20T11:19:19.645Z,-2.07
2022-11-20T11:34:22.088Z,-1.82
2022-11-20T11:49:24.771Z,-1.51
2022-11-20T12:04:27.373Z,-1.83
2022-11-20T12:19:29.680Z,-1.72
2022-11-20T12:34:34.298Z,-1.49
2022-11-20T12:49:37.169Z,-1.68
2022-11-20T13:04:40.858Z,-1.59
2022-11-20T13:34:54.868Z,-1.75
2022-11-20T13:49:57.611Z,-1.53
2022-11-20T14:04:59.940Z,-1.37
2022-11-20T14:20:02.504Z,-1.33
2022-11-20T14:35:05.523Z,-1.31
2022-11-20T14:50:10.102Z,-1.09
2022-11-20T15:05:12.792Z,-1.38
2022-11-20T15:20:15.235Z,-1.18
2022-11-20T15:35:17.645Z,-1.32
2022-11-20T15:50:21.412Z,-1.19
2022-11-20T16:05:24.777Z,-1.42
2022-11-20T16:20:28.297Z,-1.5
2022-11-20T16:35:30.491Z,-1.28
2022-11-20T16:50:32.664Z,-0.93
2022-11-20T17:05:35.110Z,-1.22
2022-11-20T17:20:37.849Z,-0.35
2022-11-20T17:35:40.474Z,-1.52
2022-11-20T17:50:49.613Z,-0.9
2022-11-20T18:05:51.883Z,-0.02
2022-11-20T18:20:54.342Z,0.59
2022-11-20T18:35:56.827Z,0.86
2022-11-20T18:50:59.092Z,0.16
2022-11-20T19:06:01.953Z,0.7
2022-11-20T19:21:04.241Z,1.4
2022-11-20T19:36:06.887Z,1.69
2022-11-20T19:51:09.359Z,2.56
2022-11-20T20:06:12.336Z,3.27
2022-11-20T20:21:14.585Z,3.76
2022-11-20T20:36:17.132Z,4.09
2022-11-20T20:51:19.410Z,4
2022-11-20T21:06:21.590Z,4.25
2022-11-20T21:21:24.011Z,4.39
2022-11-20T21:36:26.369Z,4.13
2022-11-20T21:51:28.578Z,4.36
2022-11-20T22:06:30.920Z,4.68
2022-11-20T22:21:33.309Z,4.44
2022-11-20T22:36:35.691Z,4.45
2022-11-20T22:51:38.025Z,4.22
2022-11-20T23:06:40.496Z,4.28
2022-11-20T23:21:42.759Z,4.04
2022-11-20T23:36:45.005Z,3.78
2022-11-20T23:51:47.209Z,2.79
